Wetterstation Tischlerei-Herzog
Wetterdaten: aktuell Sonntag, 19.05.2019 13:18
Datum Zeit Temp. N Temp. S Temp. Htte Aussentemp. Temp.10m Temp. Bo Feuchte Htt Luftfeuchte Sonne Luftdruck Niederschl. Wind Richtung Richtung Taupunkt empf. Temp.
19.05.2019 13:18 22,1 C 23,5 C 23,6 C 22,1 C 9,0 C 13,1 C 20 % 27 % 61 % 998,8 hPa 0,0 l/m 4,0 km/h N 355 2,2 C 22,1 C
19.05.2019 12:18 21,0 C 23,5 C 22,4 C 21,0 C 9,0 C 12,8 C 20 % 29 % 61 % 999,0 hPa 0,0 l/m 4,0 km/h N 355 2,3 C 21,0 C
19.05.2019 11:18 20,6 C 22,8 C 21,7 C 20,6 C 9,0 C 12,8 C 20 % 31 % 61 % 999,0 hPa 0,0 l/m 4,0 km/h N 355 2,9 C 20,6 C
19.05.2019 10:18 24,5 C 20,1 C 20,4 C 20,1 C 9,0 C 12,8 C 27 % 33 % 61 % 999,1 hPa 0,0 l/m 4,0 km/h N 355 3,3 C 20,1 C
19.05.2019 09:18 22,7 C 17,0 C 17,3 C 17,0 C 9,0 C 12,9 C 35 % 38 % 61 % 999,6 hPa 0,0 l/m 4,0 km/h N 355 2,6 C 17,0 C
19.05.2019 08:18 19,2 C 13,0 C 13,1 C 13,0 C 9,0 C 13,0 C 45 % 46 % 61 % 1001,2 hPa 0,0 l/m 4,0 km/h N 355 1,7 C 13,0 C
19.05.2019 07:18 13,0 C 9,3 C 8,1 C 9,3 C 9,0 C 13,3 C 63 % 56 % 61 % 1001,8 hPa 0,0 l/m 4,0 km/h N 355 1,0 C 9,3 C
19.05.2019 06:18 7,0 C 7,5 C 6,8 C 7,0 C 9,0 C 13,5 C 63 % 76 % 61 % 1002,2 hPa 0,0 l/m 4,0 km/h N 355 3,1 C 7,0 C
19.05.2019 05:18 6,8 C 7,6 C 7,2 C 6,8 C 9,0 C 13,7 C 61 % 74 % 61 % 1001,1 hPa 0,0 l/m 4,0 km/h N 355 2,5 C 6,8 C
19.05.2019 04:18 7,0 C 8,1 C 7,6 C 7,0 C 9,0 C 13,9 C 60 % 58 % 61 % 1001,1 hPa 0,0 l/m 4,0 km/h N 355 -0,7 C 7,0 C
19.05.2019 03:18 8,0 C 8,9 C 8,4 C 8,0 C 9,0 C 14,2 C 59 % 57 % 61 % 1002,0 hPa 0,0 l/m 4,0 km/h N 355 0,0 C 8,0 C
19.05.2019 02:18 8,7 C 9,7 C 9,1 C 8,7 C 9,0 C 14,4 C 57 % 58 % 61 % 1001,9 hPa 0,0 l/m 4,0 km/h N 355 0,9 C 8,7 C
19.05.2019 01:18 9,2 C 10,2 C 9,8 C 9,2 C 9,0 C 14,6 C 57 % 54 % 61 % 1001,8 hPa 0,0 l/m 4,0 km/h N 355 0,4 C 9,2 C
19.05.2019 00:18 10,1 C 11,5 C 10,8 C 10,1 C 9,0 C 14,8 C 55 % 52 % 61 % 1002,7 hPa 0,0 l/m 4,0 km/h N 355 0,7 C 10,1 C
18.05.2019 23:18 11,0 C 12,4 C 12,1 C 11,0 C 9,0 C 15,0 C 52 % 50 % 61 % 1002,6 hPa 0,0 l/m 4,0 km/h N 355 1,0 C 11,0 C
18.05.2019 22:12 12,8 C 14,3 C 14,0 C 12,8 C 9,0 C 15,0 C 46 % 44 % 61 % 1002,3 hPa 0,0 l/m 4,0 km/h N 355 0,9 C 12,8 C
18.05.2019 21:12 15,3 C 16,2 C 16,8 C 15,3 C 9,0 C 15,0 C 31 % 38 % 61 % 1000,9 hPa 0,0 l/m 4,0 km/h N 355 1,1 C 15,3 C
18.05.2019 20:12 19,4 C 18,9 C 19,6 C 18,9 C 9,0 C 14,7 C 20 % 33 % 61 % 1000,3 hPa 0,0 l/m 4,0 km/h N 355 2,3 C 18,9 C
18.05.2019 19:12 22,3 C 21,3 C 22,7 C 21,3 C 9,0 C 14,3 C 20 % 28 % 61 % 1000,0 hPa 0,0 l/m 4,0 km/h N 355 2,1 C 21,3 C
18.05.2019 18:12 23,5 C 22,1 C 23,1 C 22,1 C 9,0 C 13,6 C 20 % 20 % 61 % 999,9 hPa 0,0 l/m 4,0 km/h N 355 -1,9 C 22,1 C
18.05.2019 17:12 22,5 C 22,9 C 24,2 C 22,5 C 9,0 C 12,9 C 20 % 20 % 61 % 999,8 hPa 0,0 l/m 4,0 km/h N 355 -1,6 C 22,5 C
18.05.2019 16:12 21,9 C 23,8 C 24,4 C 21,9 C 9,0 C 12,1 C 20 % 20 % 61 % 999,9 hPa 0,0 l/m 4,0 km/h N 355 -2,1 C 21,9 C
18.05.2019 15:12 21,9 C 24,1 C 23,3 C 21,9 C 9,0 C 11,4 C 20 % 20 % 61 % 999,9 hPa 0,0 l/m 4,0 km/h N 355 -2,1 C 21,9 C
18.05.2019 14:12 21,7 C 23,3 C 23,3 C 21,7 C 9,0 C 10,7 C 20 % 20 % 61 % 999,9 hPa 0,0 l/m 4,0 km/h N 355 -2,2 C 21,7 C
18.05.2019 14:02 21,8 C 24,6 C 23,2 C 21,8 C 9,0 C 10,6 C 20 % 20 % 61 % 999,9 hPa 0,0 l/m 4,0 km/h N 355 -2,1 C 21,8 C
_ Min-Zeit 05:48 05:43 05:48 05:48 14:02 14:02 14:02 14:02 - 12:48 - 14:02 - - 14:27 05:48
Minimum _ 6,3 C 6,9 C 6,7 C 6,3 C 9,0 C 10,6 C 20 % 20 % - 998,8 hPa - 4,0 km/h - - -2,6 C 6,3 C
_ Max-Zeit 09:43 15:17 16:22 17:47 14:02 21:07 07:13 06:03 14:02 00:53 14:02 14:02 - - 10:33 17:47
Maximum _ 25,9 C 25,4 C 24,5 C 23,1 C 9,0 C 15,0 C 64 % 77 % 61 % 1002,8 hPa 0,0 l/m 4,0 km/h
N
- - 4,4 C 23,1 C
Durchschnitt _ 16,6 C 16,8 C 16,5 C 15,7 C 9,0 C 13,3 C 37 % 40 % #0 min. 1000,7 hPa #0,0 l/m 4,0 km/h N - 0,7 C 15,7 C
Tischlerei Herzog